Addison, Texas
Current Conditions -  °F | °C
As of 10:55 PM on Monday 20 Oct 2014 (Local Time) from KADS Reporting Station
Clear Clear  
Wind Chill: 22°   Ceiling: Unl
Heat Index: 22°   Visibility: 10mi
Dew Point: 17°   Wind: 8mph
Humidity: 74%   Direction: 140°SE
Pressure: 30.07"   Gusts: NA
Location:  32.95°N, 96.82°W
Report Text: KADS 210355Z AUTO 14007KT 10SM CLR 22/17 A3007 RMK AO2 T02180170
Loading
Personal Weather Stations






























Interactive Weather Map
Tropical Storm Tracking
New forecast layout! Learn more

10-Day Weather Forecast

Advertisements
Track Severe Weather on mobile